^^

METAR Αεροδρομίων

σε ακτίνα 500 χλμ


 Τι είναι το METAR ??? 

Πρώτο είναι το πλησιέστερο αεροδρόμιο (Θεσ/νίκη LGTS 6χλμ) και
τέλος το πιο απομακρυσμένο (Κων/πολη LTBA 494χλμ).
Επίσης μερικές αναφορές, παρουσιάζουν λιγότερα στοιχεία γιατί
οι αρχικές είναι ελλιπείς ή έχουν λάθος μορφοποίηση.
Πηγαίνετε στις Αναφορές METAR από Μετεωρολογικούς Σταθμούς )  
Αλφαβητική Λίστα Γρήγορης Μετάβασης στα 48 Αεροδρόμια
Αλβανία: Τίρανα  Βουλγαρία: Γκόρνα Οριαχόβιτσα  Μπουργκάς  Σόφια  Φιλιππούπολη  Ελλάδα: Αθήνα  Αλεξανδρούπολη  Ανδραβίδα  Βόλος  Ελευσίνα  Ζάκυνθος  Θεσσαλονίκη  Ιωάννινα  Καβάλα  Καλαμάτα  Κέρκυρα  Κεφαλονιά  Κοζάνη  Κύθηρα
Λέσβος  Λήμνος  Μύκονος  Νάξος  Πάρος  Πάτρα  Πρέβεζα  Σάμος  Σκιάθος  Σκύρος  Σύρος  Χίος  Ιταλία: Γκαλατίνα  Μπρίντιζι  Σάντα Μαρία ντι Λέουκα  Ταράντο  Κόσοβο: Πρίστινα  Κροατία: Ντουμπρόβνικ  Μαυροβούνιο: Ποντγκόριτσα  Τιβάτ
Δ.Β.Μ: Οχρίδα  Σκόπια  Ρουμανία: Κραϊόβα  Σερβία: Κράλιεβο  Νις  Ούζιτσε  Τουρκία: Κωνσταντινούπολη  Σμύρνη Τσορλού 
(ΒΠΑ)Βάση Πολεμικής Αεροπορίας
LGTS - Αεροδρόμιο "Μακεδονία"
Θεσσαλονίκη - Κεντρική Μακεδονία - Ελλάδα
Γ.Πλάτ: 40.5167 - Γ.Μήκ: 22.9667 - Υψόμ: 7μ
Απόσταση από το Vouhead Weather: (Ν) 6χλμ
Ενημερώθηκε: 18/09/2021 20:50
Αίθριος
Αίθριος
 Άνεμος από ΒΒΔ
Άνεμος: ΒΒΔ 11 km/h
Θερμοκρασία: 26°C
Σημ. Δρόσου: 16°C
Υγρασία: 54%
Βαρόμετρο: 1011 hPa
Περίληψη: Αίθριος
Ορατότητα: Μεγαλύτερη από 10 km
2021/09/18 17:50 LGTS 181750Z 34006KT CAVOK 26/16 Q1011 NOSIG
LGKZ - Αεροδρόμιο "Φίλιππος"
Κοζάνη - Δυτική Μακεδονία - Ελλάδα
Γ.Πλάτ: 40.2833 - Γ.Μήκ: 21.8333 - Υψόμ: 628μ
Απόσταση από το Vouhead Weather: (ΔΝΔ) 102χλμ
Ενημερώθηκε: 18/09/2021 20:50

 Άνεμος από Μεταβλητός
Άνεμος: Μεταβλητός 6 km/h
Θερμοκρασία: 21°C
Σημ. Δρόσου: 11°C
Υγρασία: 53%
Βαρόμετρο: 1015 hPa
2021/09/18 17:50 LGKZ 181750Z AUTO VRB03KT //// // ////// 21/11 Q1015 RE//
 
LGKV - Αεροδρόμιο "Μέγας Αλέξανδρος"
Καβάλα(Χρυσούπολη) - Α. Μακεδονία & Θράκη - Ελλάδα
Γ.Πλάτ: 40.9167 - Γ.Μήκ: 24.6167 - Υψόμ: 5μ
Απόσταση από το Vouhead Weather: (ΑΒΑ) 144χλμ
Ενημερώθηκε: 18/09/2021 20:50
Διάσπαρτα νέφη
Διάσπαρτα νέφη
 Άνεμος από Δ
Άνεμος: Δ 15 km/h
Θερμοκρασία: 22°C
Σημ. Δρόσου: 16°C
Υγρασία: 69%
Βαρόμετρο: 1010 hPa
Σύννεφα: Διάσπαρτα νέφη
Ορατότητα: 10 km
Ανάλυση νέφωσης: Διάσπαρτα νέφη 1067 m
2021/09/18 17:50 LGKV 181750Z 27008KT 9999 FEW035 22/16 Q1010
LGBL - Αεροδρόμιο στη Νέα Αγχίαλο
Βόλος(Αλμυρός) - Θεσσαλία - Ελλάδα
Γ.Πλάτ: 39.2167 - Γ.Μήκ: 22.8000 - Υψόμ: 26μ
Απόσταση από το Vouhead Weather: (Ν) 151χλμ
Ενημερώθηκε: 18/09/2021 20:50
Διάσπαρτα νέφη
Διάσπαρτα νέφη
 Άνεμος από ΔΒΔ
Άνεμος: ΔΒΔ 9 km/h
Θερμοκρασία: 30°C
Σημ. Δρόσου: 9°C
Υγρασία: 27%
Βαρόμετρο: 1011 hPa
Σύννεφα: Διάσπαρτα νέφη
Ορατότητα: 10 km
Ανάλυση νέφωσης: Διάσπαρτα νέφη 2438 m
2021/09/18 17:50 LGBL 181750Z 29005KT 9999 FEW080 30/09 Q1011
 
LGSK - Αεροδρόμ. "Αλέξανδρος Παπαδιαμάντης"
Σκιάθος - Θεσσαλία(Σποράδες) - Ελλάδα
Γ.Πλάτ: 39.1833 - Γ.Μήκ: 23.5000 - Υψόμ: 15μ
Απόσταση από το Vouhead Weather: (ΝΝΑ) 160χλμ
Ενημερώθηκε: 18/09/2021 19:50
ΜΗ ΠΡΟΣΦΑΤΟ METAR
Διάσπαρτα νέφη
Διάσπαρτα νέφη
 Άνεμος από ΒΔ
Άνεμος: ΒΔ 22 km/h
Θερμοκρασία: 26°C
Σημ. Δρόσου: 20°C
Υγρασία: 70%
Βαρόμετρο: 1011 hPa
Σύννεφα: Διάσπαρτα νέφη
Ορατότητα: 10 km
Ανάλυση νέφωσης: Διάσπαρτα νέφη 610 m
2021/09/18 16:50 LGSK 181650Z 32012KT 9999 FEW020 26/20 Q1011
LWSK - Αεροδρόμιο "Σκόπγιε Ιντερνάσιοναλ Έιρπορτ"
Σκόπια(Πέτροβακ) - Περιφέρεια Σκοπίων - Δ.Β.Μ
Γ.Πλάτ: 41.9667 - Γ.Μήκ: 21.6333 - Υψόμ: 239μ
Απόσταση από το Vouhead Weather: (ΒΔ) 192χλμ
Ενημερώθηκε: 18/09/2021 21:00
Αίθριος
Αίθριος
 Άνεμος από ΒΒΑ
Άνεμος: ΒΒΑ 15 km/h
Θερμοκρασία: 19°C
Σημ. Δρόσου: 13°C
Υγρασία: 68%
Βαρόμετρο: 1014 hPa
Περίληψη: Αίθριος
Ορατότητα: Μεγαλύτερη από 10 km
2021/09/18 18:00 LWSK 181800Z 03008KT CAVOK 19/13 Q1014 NOSIG
 
LWOH - Αεροδρόμιο "Σεντ Πολ Δε Απόστλ"
Οχρίδα - Νοτιοδυτική Περιφέρεια - Δ.Β.Μ
Γ.Πλάτ: 41.9667 - Γ.Μήκ: 21.6333 - Υψόμ: 239μ
Απόσταση από το Vouhead Weather: (ΔΒΔ) 193χλμ
Ενημερώθηκε: 18/09/2021 21:00
Διάσπαρτα νέφη
Διάσπαρτα νέφη
 Άνεμος από Β
Άνεμος: Β 2 km/h
Θερμοκρασία: 14°C
Σημ. Δρόσου: 12°C
Υγρασία: 88%
Βαρόμετρο: 1016 hPa
Σύννεφα: Διάσπαρτα νέφη
Ορατότητα: 10 km
Ανάλυση νέφωσης: Διάσπαρτα νέφη 1219 m
2021/09/18 18:00 LWOH 181800Z 35001KT 9999 FEW040 14/12 Q1016
LGLM - Αεροδρόμιο "Ήφαιστος"
Λήμνος - Βόρειο Αιγαίο - Ελλάδα
Γ.Πλάτ: 39.9167 - Γ.Μήκ: 25.2333 - Υψόμ: 5μ
Απόσταση από το Vouhead Weather: (ΑΝΑ) 205χλμ
Ενημερώθηκε: 18/09/2021 20:50
Διάσπαρτα νέφη
Διάσπαρτα νέφη
 Άνεμος από calm
Άνεμος: Απνοια
Θερμοκρασία: 23°C
Σημ. Δρόσου: 20°C
Υγρασία: 83%
Βαρόμετρο: 1011 hPa
Σύννεφα: Διάσπαρτα νέφη
Ορατότητα: 10 km
Ανάλυση νέφωσης: Διάσπαρτα νέφη 762 m
2021/09/18 17:50 LGLM 181750Z 00000KT 9999 FEW025 23/20 Q1011
 
LGIO - Αεροδρόμιο "Βασιλεύς Πύρρος"
Ιωάννινα - Ήπειρος - Ελλάδα
Γ.Πλάτ: 39.7000 - Γ.Μήκ: 20.8167 - Υψόμ: 476μ
Απόσταση από το Vouhead Weather: (ΔΝΔ) 207χλμ
Ενημερώθηκε: 18/09/2021 20:50
Κυρίως νεφελώδης
Κυρίως νεφελώδης
 Άνεμος από Β
Άνεμος: Β 4 km/h
Θερμοκρασία: 21°C
Σημ. Δρόσου: 16°C
Υγρασία: 73%
Βαρόμετρο: 1016 hPa
Σύννεφα: Κυρίως νεφελώδης
Ορατότητα: 10 km
Ανάλυση νέφωσης: Κυρίως νεφελώδης 2438 m
2021/09/18 17:50 LGIO 181750Z 35002KT 9999 BKN080 21/16 Q1016
LGSY - Αεροδρόμιο στη Σκύρο
Σκύρος - Θεσσαλία(Σποράδες) - Ελλάδα
Γ.Πλάτ: 38.9667 - Γ.Μήκ: 24.4833 - Υψόμ: 15μ
Απόσταση από το Vouhead Weather: (ΝΑ) 220χλμ
Ενημερώθηκε: 18/09/2021 20:50
Διάσπαρτα νέφη
Διάσπαρτα νέφη
 Άνεμος από Α
Άνεμος: Α 19 km/h
Θερμοκρασία: 25°C
Σημ. Δρόσου: 20°C
Υγρασία: 74%
Βαρόμετρο: 1012 hPa
Σύννεφα: Διάσπαρτα νέφη
Ορατότητα: 10 km
Ανάλυση νέφωσης: Διάσπαρτα νέφη 914 m
2021/09/18 17:50 LGSY 181750Z 09010KT 9999 FEW030 25/20 Q1012 RMK FEW080 FEW180 BLU
 
LBPD - Αεροδρόμιο στη Φιλιππούπολη
Φιλιππούπολη(Κρούμοβο) - Πλόβντιβ - Βουλγαρία
Γ.Πλάτ: 42.1333 - Γ.Μήκ: 24.8000 - Υψόμ: 185μ
Απόσταση από το Vouhead Weather: (ΒΑ) 231χλμ
Ενημερώθηκε: 18/09/2021 21:00
Αίθριος
Αίθριος
 Άνεμος από ΒΔ
Άνεμος: ΒΔ 26 km/h
Θερμοκρασία: 18°C
Σημ. Δρόσου: 13°C
Υγρασία: 73%
Βαρόμετρο: 1013 hPa
Σύννεφα: Αίθριος
Ορατότητα: 10 km
2021/09/18 18:00 LBPD 181800Z AUTO 31014KT 9999 NCD 18/13 Q1013 NOSIG
LBSF - Αεροδρόμιο στη Σόφια
Σόφια(Βράτσντεμπνα) - Μητρ. περ. Σόφιας - Βουλγαρία
Γ.Πλάτ: 42.6500 - Γ.Μήκ: 23.3833 - Υψόμ: 595μ
Απόσταση από το Vouhead Weather: (Β) 234χλμ
Ενημερώθηκε: 18/09/2021 21:00
Μερικώς νεφελώδης
Μερικώς νεφελώδης
 Άνεμος από Δ
Άνεμος: Δ 19 km/h
Θερμοκρασία: 15°C
Σημ. Δρόσου: 11°C
Υγρασία: 77%
Βαρόμετρο: 1016 hPa
Σύννεφα: Μερικώς νεφελώδης
Ορατότητα: 10 km
Ανάλυση νέφωσης: Μερικώς νεφελώδης 1981 m
2021/09/18 18:00 LBSF 181800Z 28010KT 9999 SCT065 15/11 Q1016 NOSIG
 
LGAL - Αεροδρόμιο "Δημόκριτος"
Αλεξανδρούπολη - Α. Μακεδονία & Θράκη - Ελλάδα
Γ.Πλάτ: 40.8500 - Γ.Μήκ: 25.9167 - Υψόμ: 3μ
Απόσταση από το Vouhead Weather: (Α) 250χλμ
Ενημερώθηκε: 18/09/2021 20:50
Διάσπαρτα νέφη
Διάσπαρτα νέφη
 Άνεμος από calm
Άνεμος: Απνοια
Θερμοκρασία: 21°C
Σημ. Δρόσου: 18°C
Υγρασία: 83%
Βαρόμετρο: 1011 hPa
Σύννεφα: Διάσπαρτα νέφη
Ορατότητα: 10 km
Ανάλυση νέφωσης: Διάσπαρτα νέφη 762 m
2021/09/18 17:50 LGAL 181750Z 00000KT 9999 FEW025 21/18 Q1011
BKPR - Αεροδρόμιο "Αντεμ Γιασάρι"
Πρίστινα - Πρίστινα - Κόσοβο
(Ελληνικό Υπουργείο Εξωτερικών, σχετικά με το Κόσοβο)
Γ.Πλάτ: 42.5833 - Γ.Μήκ: 21.0333 - Υψόμ: 576μ
Απόσταση από το Vouhead Weather: (ΒΔ) 276χλμ
Ενημερώθηκε: 18/09/2021 21:00
Κυρίως νεφελώδης
Κυρίως νεφελώδης
 Άνεμος από Β
Άνεμος: Β 17 km/h
Θερμοκρασία: 17°C
Σημ. Δρόσου: 16°C
Υγρασία: 94%
Βαρόμετρο: 1016 hPa
Σύννεφα: Κυρίως νεφελώδης
Ορατότητα: 10 km
Ανάλυση νέφωσης: Μερικώς νεφελώδης 914 m
Κυρίως νεφελώδης 2134 m
2021/09/18 18:00 BKPR 181800Z 36009KT 9999 SCT030 BKN070 17/16 Q1016 NOSIG
 
LGKR - Αεροδρόμιο "Ιωάννης Καποδίστριας"
Κέρκυρα - Ιόνιοι Νήσοι - Ελλάδα
Γ.Πλάτ: 39.6000 - Γ.Μήκ: 19.9167 - Υψόμ: 2μ
Απόσταση από το Vouhead Weather: (ΔΝΔ) 281χλμ
Ενημερώθηκε: 18/09/2021 20:50
Μερικώς νεφελώδης
Μερικώς νεφελώδης
 Άνεμος από calm
Άνεμος: Απνοια
Θερμοκρασία: 25°C
Σημ. Δρόσου: 22°C
Υγρασία: 83%
Βαρόμετρο: 1013 hPa
Σύννεφα: Μερικώς νεφελώδης
Ορατότητα: 10 km
Ανάλυση νέφωσης: Διάσπαρτα νέφη 305 m
Μερικώς νεφελώδης 2134 m
2021/09/18 17:50 LGKR 181750Z 00000KT 9999 FEW010 SCT070 25/22 Q1013 NOSIG
LATI - Αεροδρόμιο "Μάδερ Τερέζα"
Τίρανα(Ρίνα) - Τίρανα - Αλβανία
Γ.Πλάτ: 41.3167 - Γ.Μήκ: 19.7667 - Υψόμ: 90μ
Απόσταση από το Vouhead Weather: (ΔΒΔ) 282χλμ
Ενημερώθηκε: 18/09/2021 20:50
Μερικώς νεφελώδης
Μερικώς νεφελώδης
 Άνεμος από Μεταβλητός
Άνεμος: Μεταβλητός 4 km/h
Θερμοκρασία: 25°C
Σημ. Δρόσου: 18°C
Υγρασία: 65%
Βαρόμετρο: 1013 hPa
Σύννεφα: Μερικώς νεφελώδης
Ορατότητα: 10 km
Ανάλυση νέφωσης: Μερικώς νεφελώδης 2804 m
2021/09/18 17:50 LATI 181750Z VRB02KT 9999 SCT092 25/18 Q1013 NOSIG
 
LGEL - Αεροδρόμιο στην Ελευσίνα(ΒΠΑ)
Ελευσίνα - Αττική - Ελλάδα
Γ.Πλάτ: 38.0667 - Γ.Μήκ: 23.5500 - Υψόμ: 31μ
Απόσταση από το Vouhead Weather: (Ν) 282χλμ
Ενημερώθηκε: 18/09/2021 20:50
Αίθριος
Αίθριος
 Άνεμος από ΔΒΔ
Άνεμος: ΔΒΔ 15 km/h
Θερμοκρασία: 32°C
Σημ. Δρόσου: 12°C
Υγρασία: 29%
Βαρόμετρο: 1010 hPa
Περίληψη: Αίθριος
Ορατότητα: Μεγαλύτερη από 10 km
2021/09/18 17:50 LGEL 181750Z 29008KT CAVOK 32/12 Q1010
LGPZ - Αεροδρόμιο στη Πρέβεζα
Πρέβεζα(Ακτιον) - Ήπειρος - Ελλάδα
Γ.Πλάτ: 38.6167 - Γ.Μήκ: 20.7667 - Υψόμ: 4μ
Απόσταση από το Vouhead Weather: (ΝΔ) 288χλμ
Ενημερώθηκε: 18/09/2021 20:50
Μερικώς νεφελώδης
Μερικώς νεφελώδης
 Άνεμος από ΔΝΔ
Άνεμος: ΔΝΔ 7 km/h
Θερμοκρασία: 24°C
Σημ. Δρόσου: 23°C
Υγρασία: 94%
Βαρόμετρο: 1014 hPa
Σύννεφα: Μερικώς νεφελώδης
Ορατότητα: 10 km
Ανάλυση νέφωσης: Διάσπαρτα νέφη 244 m
Μερικώς νεφελώδης 2438 m
2021/09/18 17:50 LGPZ 181750Z 25004KT 9999 FEW008 SCT080 24/23 Q1014
 
LGRX - Αεροδρόμιο στη Πάτρα(ΒΠΑ)
Πάτρα(Αραξος) - Δυτική Ελλάδα - Ελλάδα
Γ.Πλάτ: 38.1667 - Γ.Μήκ: 21.4167 - Υψόμ: 15μ
Απόσταση από το Vouhead Weather: (ΝΝΔ) 299χλμ
Ενημερώθηκε: 18/09/2021 20:50
Αίθριος
Αίθριος
 Άνεμος από calm
Άνεμος: Απνοια
Θερμοκρασία: 25°C
Σημ. Δρόσου: 22°C
Υγρασία: 83%
Βαρόμετρο: 1014 hPa
Περίληψη: Αίθριος
Ορατότητα: Μεγαλύτερη από 10 km
2021/09/18 17:50 LGRX 181750Z 00000KT CAVOK 25/22 Q1014
LGAV - Αεροδρόμιο "Ελευθέριος Βεμιζέλος"
Αθήνα(Σπάτα) - Αττική - Ελλάδα
Γ.Πλάτ: 37.9333 - Γ.Μήκ: 23.9500 - Υψόμ: 94μ
Απόσταση από το Vouhead Weather: (ΝΝΑ) 305χλμ
Ενημερώθηκε: 18/09/2021 20:50
Αίθριος
Αίθριος
 Άνεμος από ΔΒΔ
Άνεμος: ΔΒΔ 17 km/h, Ριπή: 39 km/h
Θερμοκρασία: 33°C
Σημ. Δρόσου: 9°C
Υγρασία: 23%
Βαρόμετρο: 1012 hPa
Περίληψη: Αίθριος
Ορατότητα: Μεγαλύτερη από 10 km
2021/09/18 17:50 LGAV 181750Z 30009G21KT 260V340 CAVOK 33/09 Q1012 NOSIG
 
LYNI - Αεροδρόμιο "Κονσταντίν Δε Γκρέιτ"
Νις - Νότια και Ανατολική Σερβία - Σερβία
Γ.Πλάτ: 43.3167 - Γ.Μήκ: 21.8833 - Υψόμ: 202μ
Απόσταση από το Vouhead Weather: (ΒΒΔ) 319χλμ
Ενημερώθηκε: 18/09/2021 21:00
Αίθριος
Αίθριος
 Άνεμος από Μεταβλητός
Άνεμος: Μεταβλητός 2 km/h
Θερμοκρασία: 16°C
Σημ. Δρόσου: 12°C
Υγρασία: 77%
Βαρόμετρο: 1015 hPa
Περίληψη: Αίθριος
Ορατότητα: Μεγαλύτερη από 10 km
2021/09/18 18:00 LYNI 181800Z VRB01KT CAVOK 16/12 Q1015 NOSIG
LGAD - Αεροδρόμιο στην Ανδραβίδα(ΒΠΑ)
Ανδραβίδα - Δυτική Ελλάδα - Ελλάδα
Γ.Πλάτ: 37.9167 - Γ.Μήκ: 21.2667 - Υψόμ: 12μ
Απόσταση από το Vouhead Weather: (ΝΝΔ) 329χλμ
Ενημερώθηκε: 18/09/2021 20:50
Αίθριος
Αίθριος
 Άνεμος από calm
Άνεμος: Απνοια
Θερμοκρασία: 24°C
Σημ. Δρόσου: 22°C
Υγρασία: 89%
Βαρόμετρο: 1014 hPa
Περίληψη: Αίθριος
Ορατότητα: Μεγαλύτερη από 10 km
2021/09/18 17:50 LGAD 181750Z 00000KT CAVOK 24/22 Q1014
 
LGKF - Αεροδρόμιο στην Κεφαλονιά
Κεφαλονιά - Ιόνιοι Νήσοι - Ελλάδα
Γ.Πλάτ: 38.1167 - Γ.Μήκ: 20.5000 - Υψόμ: 18μ
Απόσταση από το Vouhead Weather: (ΝΔ) 346χλμ
Ενημερώθηκε: 18/09/2021 20:50
Μερικώς νεφελώδης
Μερικώς νεφελώδης
 Άνεμος από calm
Άνεμος: Απνοια
Θερμοκρασία: 25°C
Σημ. Δρόσου: 24°C
Υγρασία: 94%
Βαρόμετρο: 1014 hPa
Σύννεφα: Μερικώς νεφελώδης
Ορατότητα: 8 km
Ανάλυση νέφωσης: Μερικώς νεφελώδης 366 m
Μερικώς νεφελώδης 488 m
2021/09/18 17:50 LGKF 181750Z 00000KT 8000 SCT012 SCT016 25/24 Q1014
LGMT - Αεροδρόμιο "Οδυσσέας Ελύτης"
Λέσβος - Βόρειο Αιγαίο - Ελλάδα
Γ.Πλάτ: 39.0500 - Γ.Μήκ: 26.6000 - Υψόμ: 17μ
Απόσταση από το Vouhead Weather: (ΑΝΑ) 353χλμ
Ενημερώθηκε: 18/09/2021 20:50
Διάσπαρτα νέφη
Διάσπαρτα νέφη
 Άνεμος από ΒΒΔ
Άνεμος: ΒΒΔ 9 km/h
Θερμοκρασία: 27°C
Δείκτης Δυσφορίας: 28°C
Σημ. Δρόσου: 16°C
Υγρασία: 51%
Βαρόμετρο: 1012 hPa
Σύννεφα: Διάσπαρτα νέφη
Ορατότητα: 10 km
Ανάλυση νέφωσης: Διάσπαρτα νέφη 762 m
2021/09/18 17:50 LGMT 181750Z 33005KT 9999 FEW025 27/16 Q1012
 
LGZA - Αεροδρόμιο "Διονύσιος Σολωμός"
Ζάκυνθος - Ιόνιοι Νήσοι - Ελλάδα
Γ.Πλάτ: 37.7500 - Γ.Μήκ: 20.8667 - Υψόμ: 3μ
Απόσταση από το Vouhead Weather: (ΝΝΔ) 362χλμ
Ενημερώθηκε: 18/09/2021 20:50
Αίθριος
Αίθριος
 Άνεμος από calm
Άνεμος: Απνοια
Θερμοκρασία: 26°C
Σημ. Δρόσου: 23°C
Υγρασία: 84%
Βαρόμετρο: 1014 hPa
Περίληψη: Αίθριος
Ορατότητα: Μεγαλύτερη από 10 km
2021/09/18 17:50 LGZA 181750Z 00000KT CAVOK 26/23 Q1014
LBGO - Αεροδρόμιο στη Γκόρνα Οριαχόβιτσα
Γκόρνα Οριαχόβιτσα - Βέλικο Τάρνοβο - Βουλγαρία
Γ.Πλάτ: 43.1500 - Γ.Μήκ: 25.7167 - Υψόμ: 86μ
Απόσταση από το Vouhead Weather: (ΒΑ) 366χλμ
Ενημερώθηκε: 18/09/2021 21:00
Κυρίως νεφελώδης
Κυρίως νεφελώδης
 Άνεμος από Δ
Άνεμος: Δ 17 km/h
Θερμοκρασία: 20°C
Σημ. Δρόσου: 11°C
Υγρασία: 56%
Βαρόμετρο: 1012 hPa
Σύννεφα: Κυρίως νεφελώδης
Ορατότητα: 10 km
Ανάλυση νέφωσης: Κυρίως νεφελώδης 1463 m
Κυρίως νεφελώδης 3658 m
2021/09/18 18:00 LBGO 181800Z AUTO 26009KT 9999 BKN048/// BKN120/// 20/11 Q1012 NOSIG
 
LGHI - Αεροδρόμιο "Όμηρος"
Χίος - Ιόνιοι Νήσοι - Ελλάδα
Γ.Πλάτ: 38.3167 - Γ.Μήκ: 26.1167 - Υψόμ: 4μ
Απόσταση από το Vouhead Weather: (ΝΑ) 368χλμ
Ενημερώθηκε: 18/09/2021 20:50
Διάσπαρτα νέφη
Διάσπαρτα νέφη
 Άνεμος από Ν
Άνεμος: Ν 7 km/h
Θερμοκρασία: 25°C
Σημ. Δρόσου: 20°C
Υγρασία: 74%
Βαρόμετρο: 1011 hPa
Σύννεφα: Διάσπαρτα νέφη
Ορατότητα: 10 km
Ανάλυση νέφωσης: Διάσπαρτα νέφη 914 m
2021/09/18 17:50 LGHI 181750Z 19004KT 9999 FEW030 25/20 Q1011
LYPG - Αεροδρόμιο στη Ποντγκόριτσα
Ποντγκόριτσα - Γκολούμποβτσι - Μαυροβούνιο
Γ.Πλάτ: 42.3667 - Γ.Μήκ: 19.2500 - Υψόμ: 43μ
Απόσταση από το Vouhead Weather: (ΒΔ) 369χλμ
Ενημερώθηκε: 18/09/2021 21:00
Διάσπαρτα νέφη
Διάσπαρτα νέφη
 Άνεμος από ΝΑ
Άνεμος: ΝΑ 6 km/h
Θερμοκρασία: 23°C
Σημ. Δρόσου: 16°C
Υγρασία: 65%
Βαρόμετρο: 1012 hPa
Σύννεφα: Διάσπαρτα νέφη
Ορατότητα: 10 km
Ανάλυση νέφωσης: Διάσπαρτα νέφη 1006 m
2021/09/18 18:00 LYPG 181800Z 13003KT 090V200 9999 FEW033 23/16 Q1012 NOSIG
 
LGSO - Αεροδρόμιο "Δημήτριος Βικέλας"
Σύρος - Νότιο Αιγαίο - Ελλάδα
Γ.Πλάτ: 37.4167 - Γ.Μήκ: 24.9500 - Υψόμ: 72μ
Απόσταση από το Vouhead Weather: (ΝΝΑ) 390χλμ
Ενημερώθηκε: 18/09/2021 20:50

 Άνεμος από ΔΝΔ
Άνεμος: ΔΝΔ 11 km/h
Θερμοκρασία: 27°C
Δείκτης Δυσφορίας: 27°C
Σημ. Δρόσου: 14°C
Υγρασία: 45%
Βαρόμετρο: 1013 hPa
2021/09/18 17:50 LGSO 181750Z AUTO 25006KT //// // ////// 27/14 Q1013 RERA
LGKL - Αεροδρόμιο στη Καλαμάτα(ΒΠΑ)
Καλαμάτα - Πελοπόννησος - Ελλάδα
Γ.Πλάτ: 37.0667 - Γ.Μήκ: 22.0167 - Υψόμ: 8μ
Απόσταση από το Vouhead Weather: (ΝΝΔ) 398χλμ
Ενημερώθηκε: 18/09/2021 20:50
Αίθριος
Αίθριος
 Άνεμος από calm
Άνεμος: Απνοια
Θερμοκρασία: 24°C
Σημ. Δρόσου: 21°C
Υγρασία: 83%
Βαρόμετρο: 1014 hPa
Περίληψη: Αίθριος
Ορατότητα: Μεγαλύτερη από 10 km
2021/09/18 17:50 LGKL 181750Z 00000KT CAVOK 24/21 Q1014
 
LIBY - Αεροδρόμιο στη Σάντα Μαρία ντι Λέουκα
Σάντα Μαρία ντι Λέουκα - Απουλία(Λέτσε) - Ιταλία
Γ.Πλάτ: 39.8167 - Γ.Μήκ: 18.3500 - Υψόμ: 112μ
Απόσταση από το Vouhead Weather: (Δ) 402χλμ
Ενημερώθηκε: 18/09/2021 19:55
Αίθριος
Αίθριος
 Άνεμος από ΝΔ
Άνεμος: ΝΔ 7 km/h
Θερμοκρασία: 26°C
Σημ. Δρόσου: 23°C
Υγρασία: 84%
Βαρόμετρο: 1012 hPa
Περίληψη: Αίθριος
Ορατότητα: Μεγαλύτερη από 10 km
2021/09/18 16:55 LIBY 181655Z 23004KT CAVOK 26/23 Q1012 RMK FEW FEW090 QUK 2 QUL 1 W VIS MAR 12 KM VIS MIN 9999
LGMK - Αεροδρόμιο στη Μύκονο
Μύκονος - Νότιο Αιγαίο - Ελλάδα
Γ.Πλάτ: 37.4333 - Γ.Μήκ: 25.3500 - Υψόμ: 123μ
Απόσταση από το Vouhead Weather: (ΝΝΑ) 404χλμ
Ενημερώθηκε: 18/09/2021 20:50
Αίθριος
Αίθριος
 Άνεμος από calm
Άνεμος: Απνοια
Θερμοκρασία: 27°C
Δείκτης Δυσφορίας: 27°C
Σημ. Δρόσου: 15°C
Υγρασία: 48%
Βαρόμετρο: 1012 hPa
Περίληψη: Αίθριος
Ορατότητα: Μεγαλύτερη από 10 km
2021/09/18 17:50 LGMK 181750Z 00000KT CAVOK 27/15 Q1012
 
LYTV - Αεροδρόμιο στο Τιβάτ
Τιβάτ - Τιβάτ - Μαυροβούνιο
Γ.Πλάτ: 42.3833 - Γ.Μήκ: 18.7167 - Υψόμ: 5μ
Απόσταση από το Vouhead Weather: (ΔΒΔ) 408χλμ
Ενημερώθηκε: 18/09/2021 20:30
Διάσπαρτα νέφη
Διάσπαρτα νέφη
 Άνεμος από calm
Άνεμος: Απνοια
Θερμοκρασία: 22°C
Σημ. Δρόσου: 20°C
Υγρασία: 88%
Βαρόμετρο: 1012 hPa
Σύννεφα: Διάσπαρτα νέφη
Ορατότητα: 10 km
Ανάλυση νέφωσης: Διάσπαρτα νέφη 1219 m
2021/09/18 17:30 LYTV 181730Z 00000KT 9999 FEW040 22/20 Q1012 NOSIG
LIBN - Αεροδρόμιο στη Γκαλατίνα(ΒΠΑ)
Γκαλατίνα - Απουλία(Λέτσε) - Ιταλία
Γ.Πλάτ: 40.2167 - Γ.Μήκ: 18.1333 - Υψόμ: 61μ
Απόσταση από το Vouhead Weather: (Δ) 412χλμ
Ενημερώθηκε: 18/09/2021 19:55
Διάσπαρτα νέφη
Διάσπαρτα νέφη
 Άνεμος από Μεταβλητός
Άνεμος: Μεταβλητός 2 km/h
Θερμοκρασία: 26°C
Σημ. Δρόσου: 21°C
Υγρασία: 74%
Βαρόμετρο: 1012 hPa
Σύννεφα: Διάσπαρτα νέφη
Ορατότητα: 10 km
Ανάλυση νέφωσης: Διάσπαρτα νέφη 914 m
2021/09/18 16:55 LIBN 181655Z VRB01KT 9999 FEW030 26/21 Q1012 RMK SCT VIS MIN 9999 WIND THR14 VRB02KT WIND THR32 VRB02KT BLU
 
LYKV - Αεροδρόμιο στο Κράλιεβο & Λάντεβτσι
Κράλιεβο(Όμπρβα) - Σουμαντίγια και Δ. Σερβία - Σερβία
Γ.Πλάτ: 43.8167 - Γ.Μήκ: 20.5833 - Υψόμ: 209μ
Απόσταση από το Vouhead Weather: (ΒΒΔ) 412χλμ
Ενημερώθηκε: 18/09/2021 21:00
Αίθριος
Αίθριος
 Άνεμος από ΒΒΑ
Άνεμος: ΒΒΑ 4 km/h
Θερμοκρασία: 16°C
Σημ. Δρόσου: 13°C
Υγρασία: 83%
Βαρόμετρο: 1014 hPa
Περίληψη: Αίθριος
Ορατότητα: Μεγαλύτερη από 10 km
2021/09/18 18:00 LYKV 181800Z 02002KT CAVOK 16/13 Q1014 NOSIG
LTBU - Αεροδρόμιο στο Τσορλού(ΒΠΑ)
Τσορλού - Μαρμαράς(Τεκιρντάγ-Ραιδεστός) - Τουρκία
Γ.Πλάτ: 41.1167 - Γ.Μήκ: 27.9167 - Υψόμ: 173μ
Απόσταση από το Vouhead Weather: (Α) 420χλμ
Ενημερώθηκε: 18/09/2021 20:50
Μερικώς νεφελώδης
Μερικώς νεφελώδης
 Άνεμος από ΒΔ
Άνεμος: ΒΔ 19 km/h
Θερμοκρασία: 22°C
Σημ. Δρόσου: 17°C
Υγρασία: 73%
Βαρόμετρο: 1011 hPa
Σύννεφα: Μερικώς νεφελώδης
Ορατότητα: 10 km
Ανάλυση νέφωσης: Διάσπαρτα νέφη 1067 m
Μερικώς νεφελώδης 3048 m
2021/09/18 17:50 LTBU 181750Z 31010KT 9999 FEW035 SCT100 22/17 Q1011
 
LRCV - Αεροδρόμιο στη Κραϊόβα
Κραϊόβα - Δολζ - Ρουμανία
Γ.Πλάτ: 44.3167 - Γ.Μήκ: 23.8833 - Υψόμ: 191μ
Απόσταση από το Vouhead Weather: (Β) 424χλμ
Ενημερώθηκε: 18/09/2021 21:00
Αίθριος
Αίθριος
 Άνεμος από Δ
Άνεμος: Δ 15 km/h
Θερμοκρασία: 19°C
Σημ. Δρόσου: 6°C
Υγρασία: 43%
Βαρόμετρο: 1012 hPa
Περίληψη: Αίθριος
Ορατότητα: Μεγαλύτερη από 10 km
2021/09/18 18:00 LRCV 181800Z 27008KT CAVOK 19/06 Q1012
LIBR - Αεροδρόμιο στο Μπρίντιζι
(Ανεπίσημο όνομα αεροδρομίου: Ντελ Σαλέντο)
Μπρίντιζι(Πάπολα-Καζάλε) - Απουλία(Μπρίντιζι) - Ιταλία
Γ.Πλάτ: 40.6500 - Γ.Μήκ: 17.9500 - Υψόμ: 10μ
Απόσταση από το Vouhead Weather: (Δ) 424χλμ
Ενημερώθηκε: 18/09/2021 20:50
Αίθριος
Αίθριος
 Άνεμος από Ν
Άνεμος: Ν 6 km/h
Θερμοκρασία: 24°C
Σημ. Δρόσου: 20°C
Υγρασία: 78%
Βαρόμετρο: 1012 hPa
Περίληψη: Αίθριος
Ορατότητα: Μεγαλύτερη από 10 km
2021/09/18 17:50 LIBR 181750Z 17003KT CAVOK 24/20 Q1012
 
LBBG - Αεροδρόμιο στo Μπουργκάς
Μπουργκάς(Σαράφοβο) - Μπουργκάς - Βουλγαρία
Γ.Πλάτ: 42.5000 - Γ.Μήκ: 27.4833 - Υψόμ: 28μ
Απόσταση από το Vouhead Weather: (ΑΒΑ) 432χλμ
Ενημερώθηκε: 18/09/2021 21:00
Ασθενής βροχή, Showers, Διάσπαρτα νέφη
Ασθενής βροχή, Showers, Διάσπαρτα νέφη
 Άνεμος από ΒΔ
Άνεμος: ΒΔ 7 km/h
Θερμοκρασία: 19°C
Σημ. Δρόσου: 19°C
Υγρασία: 100%
Βαρόμετρο: 1011 hPa
Περίληψη: Ασθενής βροχή, Showers
Σύννεφα: Διάσπαρτα νέφη
Ορατότητα: 10 km
Ανάλυση νέφωσης: Διάσπαρτα νέφη 213 m
Διάσπαρτα νέφη 1036 m
2021/09/18 18:00 LBBG 181800Z 32004KT 9999 -SHRA FEW007 FEW034TCU 19/19 Q1011 RESHRA BECMG NSW
LGPA - Αεροδρόμιο "Παντελαίειο"
Πάρος - Νότιο Αιγαίο - Ελλάδα
Γ.Πλάτ: 37.0000 - Γ.Μήκ: 25.0667 - Υψόμ: 36μ
Απόσταση από το Vouhead Weather: (ΝΝΑ) 436χλμ
Ενημερώθηκε: 18/09/2021 20:50

 Άνεμος από ΑΝΑ
Άνεμος: ΑΝΑ 15 km/h
Θερμοκρασία: 25°C
Σημ. Δρόσου: 23°C
Υγρασία: 89%
Βαρόμετρο: 1013 hPa
2021/09/18 17:50 LGPA 181750Z AUTO 12008KT //// // ////// 25/23 Q1013 RE//
 
LGNX - Αεροδρόμιο στη Νάξο
Νάξος - Νότιο Αιγαίο - Ελλάδα
Γ.Πλάτ: 37.0833 - Γ.Μήκ: 25.3667 - Υψόμ: 4μ
Απόσταση από το Vouhead Weather: (ΝΝΑ) 439χλμ
Ενημερώθηκε: 18/09/2021 18:50
ΜΗ ΠΡΟΣΦΑΤΟ METAR
Αίθριος
Αίθριος
 Άνεμος από ΝΝΑ
Άνεμος: ΝΝΑ 11 km/h
Θερμοκρασία: 29°C
Δείκτης Δυσφορίας: 29°C
Σημ. Δρόσου: 18°C
Υγρασία: 51%
Βαρόμετρο: 1012 hPa
Περίληψη: Αίθριος
Ορατότητα: Μεγαλύτερη από 10 km
2021/09/18 15:50 LGNX 181550Z 15006KT CAVOK 29/18 Q1012
LTBJ - Αεροδρόμιο "Αντνάν Μεντερές"
Σμύρνη - Αιγαίο(Σμύρνη) - Τουρκία
Γ.Πλάτ: 38.2667 - Γ.Μήκ: 27.1333 - Υψόμ: 120μ
Απόσταση από το Vouhead Weather: (ΝΑ) 439χλμ
Ενημερώθηκε: 18/09/2021 20:50
Αίθριος
Αίθριος
 Άνεμος από ΝΑ
Άνεμος: ΝΑ 11 km/h
Θερμοκρασία: 27°C
Δείκτης Δυσφορίας: 27°C
Σημ. Δρόσου: 13°C
Υγρασία: 42%
Βαρόμετρο: 1012 hPa
Περίληψη: Αίθριος
Ορατότητα: Μεγαλύτερη από 10 km
2021/09/18 17:50 LTBJ 181750Z 13006KT 080V170 CAVOK 27/13 Q1012 NOSIG
 
LDDU - Αεροδρόμιο στο Ντουμπρόβνικ
Ντουμπρόβνικ - Ντουμπρόβνικ Νερέτβα - Κροατία
Γ.Πλάτ: 42.5667 - Γ.Μήκ: 18.2667 - Υψόμ: 165μ
Απόσταση από το Vouhead Weather: (ΔΒΔ) 450χλμ
Ενημερώθηκε: 18/09/2021 21:00
Αίθριος
Αίθριος
 Άνεμος από ΒΑ
Άνεμος: ΒΑ 4 km/h
Θερμοκρασία: 21°C
Σημ. Δρόσου: 19°C
Υγρασία: 88%
Βαρόμετρο: 1013 hPa
Περίληψη: Αίθριος
Ορατότητα: Μεγαλύτερη από 10 km
2021/09/18 18:00 LDDU 181800Z 05002KT CAVOK 21/19 Q1013 NOSIG
LYUZ - Αεροδρόμιο στην Ούζιτσε & Πόνικβε
(Ανεπίσημο όνομα αεροδρομίου: Λέπα Γκλάβα)
Ούζιτσε - Σουμαντίγια και Δ. Σερβία - Σερβία
Γ.Πλάτ: 43.9000 - Γ.Μήκ: 19.7000 - Υψόμ: 904μ
Απόσταση από το Vouhead Weather: (ΒΔ) 458χλμ
Ενημερώθηκε: 18/09/2021 21:00
Ασθενές ψιλόβροχο, Μερικώς νεφελώδης
Ασθενές ψιλόβροχο, Μερικώς νεφελώδης
 Άνεμος από Μεταβλητός
Άνεμος: Μεταβλητός 2 km/h
Θερμοκρασία: 14°C
Σημ. Δρόσου: 10°C
Υγρασία: 77%
Βαρόμετρο: 1017 hPa
Περίληψη: Ασθενές ψιλόβροχο
Σύννεφα: Μερικώς νεφελώδης
Ορατότητα: 10 km
2021/09/18 18:00 LYUZ 181800Z AUTO VRB01KT 9999 -DZ NSC 14/10 Q1017
 
LGSM - Αεροδρόμιο "Αρίσταρχος ο Σάμιος"
Σάμος - Βόρειο Αιγαίο - Ελλάδα
Γ.Πλάτ: 37.6833 - Γ.Μήκ: 26.9167 - Υψόμ: 6μ
Απόσταση από το Vouhead Weather: (ΝΑ) 467χλμ
Ενημερώθηκε: 18/09/2021 20:50
Διάσπαρτα νέφη
Διάσπαρτα νέφη
 Άνεμος από calm
Άνεμος: Απνοια
Θερμοκρασία: 23°C
Σημ. Δρόσου: 22°C
Υγρασία: 94%
Βαρόμετρο: 1013 hPa
Σύννεφα: Διάσπαρτα νέφη
Ορατότητα: 10 km
Ανάλυση νέφωσης: Διάσπαρτα νέφη 914 m
2021/09/18 17:50 LGSM 181750Z 00000KT 9999 FEW030 23/22 Q1013
LIBG - Αεροδρόμιο "Μαρτσέλο Αρλόττα"
Μουντιάζι(Ταράντο-Γκροτάλιε)-Απουλία(Ταράντο)-Ιταλία
Γ.Πλάτ: 40.5167 - Γ.Μήκ: 17.3833 - Υψόμ: 69μ
Απόσταση από το Vouhead Weather: (Δ) 472χλμ
Ενημερώθηκε: 18/09/2021 20:50
Διάσπαρτα νέφη
Διάσπαρτα νέφη
 Άνεμος από Α
Άνεμος: Α 7 km/h
Θερμοκρασία: 24°C
Σημ. Δρόσου: 21°C
Υγρασία: 83%
Βαρόμετρο: 1012 hPa
Σύννεφα: Διάσπαρτα νέφη
Ορατότητα: 10 km
Ανάλυση νέφωσης: Διάσπαρτα νέφη 1219 m
2021/09/18 17:50 LIBG 181750Z 09004KT 9999 FEW040 24/21 Q1012
 
LGKC - Αεροδρόμιο στα Κύθηρα
Κύθηρα(Επτάνησα) - Αττική(Νήσοι) - Ελλάδα
Γ.Πλάτ: 36.2833 - Γ.Μήκ: 23.0167 - Υψόμ: 319μ
Απόσταση από το Vouhead Weather: (Ν) 476χλμ
Ενημερώθηκε: 18/09/2021 19:50
ΜΗ ΠΡΟΣΦΑΤΟ METAR
Διάσπαρτα νέφη
Διάσπαρτα νέφη
 Άνεμος από Δ
Άνεμος: Δ 26 km/h
Θερμοκρασία: 24°C
Σημ. Δρόσου: 21°C
Υγρασία: 83%
Βαρόμετρο: 1015 hPa
Σύννεφα: Διάσπαρτα νέφη
Ορατότητα: 10 km
Ανάλυση νέφωσης: Διάσπαρτα νέφη 274 m
2021/09/18 16:50 LGKC 181650Z 26014KT 9999 FEW009 24/21 Q1015
LTBA - Αεροδρόμιο "Ατατούρκ"
Κωνσταντινούπολη - Μαρμαράς(Κων/πολη) - Τουρκία
Γ.Πλάτ: 40.9667 - Γ.Μήκ: 28.8167 - Υψόμ: 37μ
Απόσταση από το Vouhead Weather: (Α) 494χλμ
Ενημερώθηκε: 18/09/2021 20:50
Κυρίως νεφελώδης
Κυρίως νεφελώδης
 Άνεμος από ΝΝΑ
Άνεμος: ΝΝΑ 7 km/h
Θερμοκρασία: 25°C
Σημ. Δρόσου: 18°C
Υγρασία: 65%
Βαρόμετρο: 1010 hPa
Σύννεφα: Κυρίως νεφελώδης
Ορατότητα: 10 km
Ανάλυση νέφωσης: Διάσπαρτα νέφη 762 m
Κυρίως νεφελώδης 1067 m
2021/09/18 17:50 LTBA 181750Z 16004KT 130V190 9999 FEW025CB BKN035 25/18 Q1010 NOSIG
   Μην χρησιμοποιήσετε τα στοιχεία για αποφάσεις που αφορούν ζωές και πάσης φύσεως ιδιοκτησίες  
ΠΗΓΑΙΝΕΤΕ ΣΤΗΝ ΙΟΝΙΑ GO TO REA ΠΗΓΑΙΝΕΤΕ ΣΤΗΝ ΚΗΦΙΣΙΑ ΠΗΓΑΙΝΕΤΕ ΣΤΗΝ ΣΥΡΟ ΠΗΓΑΙΝΕΤΕ ΣΤΗΝ ΔΕΞΑΜΕΝΗ (BOLTEK) ΠΗΓΑΙΝΕΤΕ ΣΤΗΝ ΔΕΞΑΜΕΝΗ (LR) ΠΗΓΑΙΝΕΤΕ ΣΤΗΝ ΛΑΡΙΣΑ Γενική Γραμματεία Πολιτικής Προστασίας Ενιαίος Ευρωπαϊκός Αριθμός Έκτακτης Ανάγκης Βίντεο για το Καστελλόριζο(Μεγίστη) από τα αρχεία της ΕΡΤ Ιστοσελίδα Δήμου Μεγίστης Δείτε το μεγαλύτερο